sensor_id;sensor_type;location;lat;lon;timestamp;P1;durP1;ratioP1;P2;durP2;ratioP2
80854;SDS011;70272;49.222;-122.892;2023-07-24T00:02:12;5.50;;;2.50;;
80854;SDS011;70272;49.222;-122.892;2023-07-24T00:04:39;4.00;;;2.80;;
80854;SDS011;70272;49.222;-122.892;2023-07-24T00:07:05;5.10;;;2.20;;
80854;SDS011;70272;49.222;-122.892;2023-07-24T00:09:32;3.63;;;2.40;;
80854;SDS011;70272;49.222;-122.892;2023-07-24T00:11:58;4.72;;;2.20;;
80854;SDS011;70272;49.222;-122.892;2023-07-24T00:14:24;3.65;;;2.25;;
80854;SDS011;70272;49.222;-122.892;2023-07-24T00:16:50;3.60;;;2.25;;
80854;SDS011;70272;49.222;-122.892;2023-07-24T00:19:17;6.72;;;3.08;;
80854;SDS011;70272;49.222;-122.892;2023-07-24T00:21:43;6.25;;;2.50;;
80854;SDS011;70272;49.222;-122.892;2023-07-24T00:24:09;3.72;;;2.30;;
80854;SDS011;70272;49.222;-122.892;2023-07-24T00:26:35;3.40;;;2.28;;
80854;SDS011;70272;49.222;-122.892;2023-07-24T00:29:02;4.15;;;2.40;;
80854;SDS011;70272;49.222;-122.892;2023-07-24T00:31:28;4.20;;;2.50;;
80854;SDS011;70272;49.222;-122.892;2023-07-24T00:33:54;4.25;;;2.30;;
80854;SDS011;70272;49.222;-122.892;2023-07-24T00:36:20;5.47;;;2.95;;
80854;SDS011;70272;49.222;-122.892;2023-07-24T00:38:46;3.85;;;2.40;;
80854;SDS011;70272;49.222;-122.892;2023-07-24T00:41:13;4.43;;;2.70;;
80854;SDS011;70272;49.222;-122.892;2023-07-24T00:43:39;3.78;;;2.60;;
80854;SDS011;70272;49.222;-122.892;2023-07-24T00:46:06;4.53;;;2.30;;
80854;SDS011;70272;49.222;-122.892;2023-07-24T00:48:32;3.00;;;2.53;;
80854;SDS011;70272;49.222;-122.892;2023-07-24T00:50:59;5.15;;;2.50;;
80854;SDS011;70272;49.222;-122.892;2023-07-24T00:53:25;3.30;;;2.42;;
80854;SDS011;70272;49.222;-122.892;2023-07-24T00:55:52;4.95;;;2.40;;
80854;SDS011;70272;49.222;-122.892;2023-07-24T00:58:19;3.67;;;2.25;;
80854;SDS011;70272;49.222;-122.892;2023-07-24T01:00:45;3.40;;;2.20;;
80854;SDS011;70272;49.222;-122.892;2023-07-24T01:03:11;3.00;;;2.40;;
80854;SDS011;70272;49.222;-122.892;2023-07-24T01:05:38;3.60;;;2.33;;
80854;SDS011;70272;49.222;-122.892;2023-07-24T01:08:04;3.35;;;2.42;;
80854;SDS011;70272;49.222;-122.892;2023-07-24T01:10:30;4.38;;;2.50;;
80854;SDS011;70272;49.222;-122.892;2023-07-24T01:16:00;3.38;;;2.40;;
80854;SDS011;70272;49.222;-122.892;2023-07-24T01:18:29;3.67;;;2.20;;
80854;SDS011;70272;49.222;-122.892;2023-07-24T01:20:57;5.03;;;2.70;;
80854;SDS011;70272;49.222;-122.892;2023-07-24T01:26:19;3.75;;;2.20;;
80854;SDS011;70272;49.222;-122.892;2023-07-24T01:28:45;3.10;;;2.47;;
80854;SDS011;70272;49.222;-122.892;2023-07-24T01:31:12;3.35;;;2.45;;
80854;SDS011;70272;49.222;-122.892;2023-07-24T01:33:39;3.28;;;2.40;;
80854;SDS011;70272;49.222;-122.892;2023-07-24T01:36:05;3.45;;;2.55;;
80854;SDS011;70272;49.222;-122.892;2023-07-24T01:38:32;4.03;;;2.50;;
80854;SDS011;70272;49.222;-122.892;2023-07-24T01:41:00;3.88;;;2.30;;
80854;SDS011;70272;49.222;-122.892;2023-07-24T01:43:30;3.15;;;2.30;;
80854;SDS011;70272;49.222;-122.892;2023-07-24T01:45:57;4.00;;;2.40;;
80854;SDS011;70272;49.222;-122.892;2023-07-24T01:48:24;3.83;;;2.38;;
80854;SDS011;70272;49.222;-122.892;2023-07-24T01:50:50;3.53;;;2.22;;
80854;SDS011;70272;49.222;-122.892;2023-07-24T01:53:16;3.10;;;2.10;;
80854;SDS011;70272;49.222;-122.892;2023-07-24T01:55:42;3.40;;;2.42;;
80854;SDS011;70272;49.222;-122.892;2023-07-24T01:58:09;4.00;;;2.30;;
80854;SDS011;70272;49.222;-122.892;2023-07-24T02:00:35;3.58;;;2.38;;
80854;SDS011;70272;49.222;-122.892;2023-07-24T02:03:01;4.47;;;2.20;;
80854;SDS011;70272;49.222;-122.892;2023-07-24T02:05:27;3.85;;;2.40;;
80854;SDS011;70272;49.222;-122.892;2023-07-24T02:07:55;4.90;;;2.40;;
80854;SDS011;70272;49.222;-122.892;2023-07-24T02:10:21;4.15;;;2.30;;
80854;SDS011;70272;49.222;-122.892;2023-07-24T02:12:47;3.53;;;2.35;;
80854;SDS011;70272;49.222;-122.892;2023-07-24T02:15:13;4.43;;;2.80;;
80854;SDS011;70272;49.222;-122.892;2023-07-24T02:17:40;4.22;;;2.40;;
80854;SDS011;70272;49.222;-122.892;2023-07-24T02:20:07;4.00;;;2.47;;
80854;SDS011;70272;49.222;-122.892;2023-07-24T02:22:34;3.83;;;2.35;;
80854;SDS011;70272;49.222;-122.892;2023-07-24T02:25:00;3.28;;;2.13;;
80854;SDS011;70272;49.222;-122.892;2023-07-24T02:27:27;3.80;;;2.67;;
80854;SDS011;70272;49.222;-122.892;2023-07-24T02:29:56;3.15;;;2.42;;
80854;SDS011;70272;49.222;-122.892;2023-07-24T02:32:23;3.08;;;2.00;;
80854;SDS011;70272;49.222;-122.892;2023-07-24T02:34:49;3.30;;;2.00;;
80854;SDS011;70272;49.222;-122.892;2023-07-24T02:37:16;2.88;;;2.10;;
80854;SDS011;70272;49.222;-122.892;2023-07-24T02:39:42;2.90;;;2.10;;
80854;SDS011;70272;49.222;-122.892;2023-07-24T02:42:09;3.50;;;2.10;;
80854;SDS011;70272;49.222;-122.892;2023-07-24T02:44:35;3.92;;;2.20;;
80854;SDS011;70272;49.222;-122.892;2023-07-24T02:47:01;3.15;;;2.03;;
80854;SDS011;70272;49.222;-122.892;2023-07-24T02:49:28;4.22;;;2.10;;
80854;SDS011;70272;49.222;-122.892;2023-07-24T02:51:55;3.25;;;2.08;;
80854;SDS011;70272;49.222;-122.892;2023-07-24T02:54:21;3.22;;;2.28;;
80854;SDS011;70272;49.222;-122.892;2023-07-24T02:56:47;3.67;;;2.03;;
80854;SDS011;70272;49.222;-122.892;2023-07-24T02:59:13;3.58;;;2.30;;
80854;SDS011;70272;49.222;-122.892;2023-07-24T03:01:39;4.55;;;2.53;;
80854;SDS011;70272;49.222;-122.892;2023-07-24T03:04:06;3.20;;;2.10;;
80854;SDS011;70272;49.222;-122.892;2023-07-24T03:06:32;4.18;;;2.45;;
80854;SDS011;70272;49.222;-122.892;2023-07-24T03:08:58;3.65;;;2.38;;
80854;SDS011;70272;49.222;-122.892;2023-07-24T03:11:25;3.83;;;2.50;;
80854;SDS011;70272;49.222;-122.892;2023-07-24T03:13:51;3.05;;;2.33;;
80854;SDS011;70272;49.222;-122.892;2023-07-24T03:16:17;3.30;;;2.40;;
80854;SDS011;70272;49.222;-122.892;2023-07-24T03:18:44;3.42;;;2.20;;
80854;SDS011;70272;49.222;-122.892;2023-07-24T03:21:11;3.47;;;2.20;;
80854;SDS011;70272;49.222;-122.892;2023-07-24T03:23:37;3.33;;;2.28;;
80854;SDS011;70272;49.222;-122.892;2023-07-24T03:26:03;3.70;;;2.30;;
80854;SDS011;70272;49.222;-122.892;2023-07-24T03:28:29;2.90;;;2.15;;
80854;SDS011;70272;49.222;-122.892;2023-07-24T03:30:56;4.03;;;2.30;;
80854;SDS011;70272;49.222;-122.892;2023-07-24T03:33:22;3.88;;;2.47;;
80854;SDS011;70272;49.222;-122.892;2023-07-24T03:35:48;3.45;;;2.28;;
80854;SDS011;70272;49.222;-122.892;2023-07-24T03:38:14;2.78;;;2.10;;
80854;SDS011;70272;49.222;-122.892;2023-07-24T03:40:41;2.85;;;2.17;;
80854;SDS011;70272;49.222;-122.892;2023-07-24T03:43:07;3.30;;;2.10;;
80854;SDS011;70272;49.222;-122.892;2023-07-24T03:45:33;3.58;;;2.20;;
80854;SDS011;70272;49.222;-122.892;2023-07-24T03:47:59;3.80;;;2.50;;
80854;SDS011;70272;49.222;-122.892;2023-07-24T03:50:28;3.13;;;2.10;;
80854;SDS011;70272;49.222;-122.892;2023-07-24T03:52:55;4.22;;;2.55;;
80854;SDS011;70272;49.222;-122.892;2023-07-24T03:55:21;4.82;;;2.70;;
80854;SDS011;70272;49.222;-122.892;2023-07-24T03:57:47;4.30;;;2.75;;
80854;SDS011;70272;49.222;-122.892;2023-07-24T04:00:13;3.20;;;2.40;;
80854;SDS011;70272;49.222;-122.892;2023-07-24T04:02:40;4.35;;;2.45;;
80854;SDS011;70272;49.222;-122.892;2023-07-24T04:05:06;5.10;;;2.53;;
80854;SDS011;70272;49.222;-122.892;2023-07-24T04:07:33;3.65;;;2.40;;
80854;SDS011;70272;49.222;-122.892;2023-07-24T04:09:59;3.45;;;2.50;;
80854;SDS011;70272;49.222;-122.892;2023-07-24T04:12:25;3.55;;;2.42;;
80854;SDS011;70272;49.222;-122.892;2023-07-24T04:14:54;4.07;;;2.55;;
80854;SDS011;70272;49.222;-122.892;2023-07-24T04:17:20;3.28;;;2.80;;
80854;SDS011;70272;49.222;-122.892;2023-07-24T04:19:46;3.40;;;2.40;;
80854;SDS011;70272;49.222;-122.892;2023-07-24T04:22:12;4.07;;;2.50;;
80854;SDS011;70272;49.222;-122.892;2023-07-24T04:24:39;3.35;;;2.40;;
80854;SDS011;70272;49.222;-122.892;2023-07-24T04:27:05;4.40;;;2.33;;
80854;SDS011;70272;49.222;-122.892;2023-07-24T04:29:31;3.90;;;2.30;;
80854;SDS011;70272;49.222;-122.892;2023-07-24T04:31:57;4.93;;;2.70;;
80854;SDS011;70272;49.222;-122.892;2023-07-24T04:34:24;3.38;;;2.40;;
80854;SDS011;70272;49.222;-122.892;2023-07-24T04:36:50;3.15;;;2.40;;
80854;SDS011;70272;49.222;-122.892;2023-07-24T04:39:16;3.65;;;2.20;;
80854;SDS011;70272;49.222;-122.892;2023-07-24T04:41:42;3.83;;;2.28;;
80854;SDS011;70272;49.222;-122.892;2023-07-24T04:44:08;5.15;;;2.35;;
80854;SDS011;70272;49.222;-122.892;2023-07-24T04:46:35;3.55;;;2.33;;
80854;SDS011;70272;49.222;-122.892;2023-07-24T04:49:01;3.28;;;2.10;;
80854;SDS011;70272;49.222;-122.892;2023-07-24T04:51:27;2.95;;;2.15;;
80854;SDS011;70272;49.222;-122.892;2023-07-24T04:53:53;4.00;;;2.33;;
80854;SDS011;70272;49.222;-122.892;2023-07-24T04:56:19;3.47;;;2.13;;
80854;SDS011;70272;49.222;-122.892;2023-07-24T04:58:46;3.83;;;2.40;;
80854;SDS011;70272;49.222;-122.892;2023-07-24T05:01:12;3.80;;;2.25;;
80854;SDS011;70272;49.222;-122.892;2023-07-24T05:03:38;3.97;;;2.35;;
80854;SDS011;70272;49.222;-122.892;2023-07-24T05:06:04;2.65;;;2.10;;
80854;SDS011;70272;49.222;-122.892;2023-07-24T05:08:30;3.38;;;2.10;;
80854;SDS011;70272;49.222;-122.892;2023-07-24T05:10:57;3.17;;;2.40;;
80854;SDS011;70272;49.222;-122.892;2023-07-24T05:13:24;3.13;;;1.95;;
80854;SDS011;70272;49.222;-122.892;2023-07-24T05:15:51;3.47;;;2.28;;
80854;SDS011;70272;49.222;-122.892;2023-07-24T05:18:17;3.55;;;2.22;;
80854;SDS011;70272;49.222;-122.892;2023-07-24T05:20:47;3.00;;;2.13;;
80854;SDS011;70272;49.222;-122.892;2023-07-24T05:23:16;3.20;;;2.20;;
80854;SDS011;70272;49.222;-122.892;2023-07-24T05:25:42;3.55;;;2.10;;
80854;SDS011;70272;49.222;-122.892;2023-07-24T05:28:09;2.90;;;1.90;;
80854;SDS011;70272;49.222;-122.892;2023-07-24T05:30:35;3.05;;;2.22;;
80854;SDS011;70272;49.222;-122.892;2023-07-24T05:33:02;3.22;;;2.10;;
80854;SDS011;70272;49.222;-122.892;2023-07-24T05:35:28;5.30;;;2.40;;
80854;SDS011;70272;49.222;-122.892;2023-07-24T05:37:54;3.55;;;2.00;;
80854;SDS011;70272;49.222;-122.892;2023-07-24T05:40:20;3.47;;;2.22;;
80854;SDS011;70272;49.222;-122.892;2023-07-24T05:42:47;3.63;;;2.60;;
80854;SDS011;70272;49.222;-122.892;2023-07-24T05:45:13;3.10;;;2.20;;
80854;SDS011;70272;49.222;-122.892;2023-07-24T05:47:42;3.35;;;2.13;;
80854;SDS011;70272;49.222;-122.892;2023-07-24T05:50:09;3.28;;;2.35;;
80854;SDS011;70272;49.222;-122.892;2023-07-24T05:52:35;3.38;;;2.20;;
80854;SDS011;70272;49.222;-122.892;2023-07-24T05:55:02;3.05;;;2.28;;
80854;SDS011;70272;49.222;-122.892;2023-07-24T05:57:28;3.53;;;2.38;;
80854;SDS011;70272;49.222;-122.892;2023-07-24T05:59:54;3.22;;;2.20;;
80854;SDS011;70272;49.222;-122.892;2023-07-24T06:02:21;3.10;;;2.28;;
80854;SDS011;70272;49.222;-122.892;2023-07-24T06:04:47;3.25;;;2.20;;
80854;SDS011;70272;49.222;-122.892;2023-07-24T06:07:14;4.75;;;2.35;;
80854;SDS011;70272;49.222;-122.892;2023-07-24T06:09:40;3.05;;;2.17;;
80854;SDS011;70272;49.222;-122.892;2023-07-24T06:12:06;3.60;;;2.35;;
80854;SDS011;70272;49.222;-122.892;2023-07-24T06:14:32;4.30;;;2.25;;
80854;SDS011;70272;49.222;-122.892;2023-07-24T06:16:59;3.13;;;2.25;;
80854;SDS011;70272;49.222;-122.892;2023-07-24T06:19:25;3.05;;;2.17;;
80854;SDS011;70272;49.222;-122.892;2023-07-24T06:21:53;3.63;;;2.47;;
80854;SDS011;70272;49.222;-122.892;2023-07-24T06:24:19;4.25;;;2.47;;
80854;SDS011;70272;49.222;-122.892;2023-07-24T06:26:46;3.08;;;2.10;;
80854;SDS011;70272;49.222;-122.892;2023-07-24T06:29:12;3.08;;;2.08;;
80854;SDS011;70272;49.222;-122.892;2023-07-24T06:31:39;3.42;;;2.38;;
80854;SDS011;70272;49.222;-122.892;2023-07-24T06:34:06;3.05;;;2.00;;
80854;SDS011;70272;49.222;-122.892;2023-07-24T06:36:32;2.58;;;1.95;;
80854;SDS011;70272;49.222;-122.892;2023-07-24T06:38:58;3.50;;;2.13;;
80854;SDS011;70272;49.222;-122.892;2023-07-24T06:41:25;3.28;;;2.10;;
80854;SDS011;70272;49.222;-122.892;2023-07-24T06:43:51;3.35;;;2.00;;
80854;SDS011;70272;49.222;-122.892;2023-07-24T06:46:17;3.70;;;2.33;;
80854;SDS011;70272;49.222;-122.892;2023-07-24T06:48:44;3.10;;;2.13;;
80854;SDS011;70272;49.222;-122.892;2023-07-24T06:51:10;3.20;;;2.38;;
80854;SDS011;70272;49.222;-122.892;2023-07-24T06:53:36;3.38;;;2.03;;
80854;SDS011;70272;49.222;-122.892;2023-07-24T06:56:02;4.78;;;2.30;;
80854;SDS011;70272;49.222;-122.892;2023-07-24T06:58:29;4.32;;;2.22;;
80854;SDS011;70272;49.222;-122.892;2023-07-24T07:00:55;3.08;;;2.05;;
80854;SDS011;70272;49.222;-122.892;2023-07-24T07:03:21;3.17;;;2.28;;
80854;SDS011;70272;49.222;-122.892;2023-07-24T07:05:47;4.60;;;2.20;;
80854;SDS011;70272;49.222;-122.892;2023-07-24T07:08:13;3.92;;;2.20;;
80854;SDS011;70272;49.222;-122.892;2023-07-24T07:10:40;3.65;;;2.20;;
80854;SDS011;70272;49.222;-122.892;2023-07-24T07:13:06;3.42;;;2.17;;
80854;SDS011;70272;49.222;-122.892;2023-07-24T07:15:32;2.90;;;2.10;;
80854;SDS011;70272;49.222;-122.892;2023-07-24T07:17:58;3.72;;;2.38;;
80854;SDS011;70272;49.222;-122.892;2023-07-24T07:20:24;4.80;;;2.15;;
80854;SDS011;70272;49.222;-122.892;2023-07-24T07:22:51;3.60;;;2.30;;
80854;SDS011;70272;49.222;-122.892;2023-07-24T07:25:17;5.93;;;2.30;;
80854;SDS011;70272;49.222;-122.892;2023-07-24T07:27:43;4.53;;;2.00;;
80854;SDS011;70272;49.222;-122.892;2023-07-24T07:30:10;4.25;;;2.20;;
80854;SDS011;70272;49.222;-122.892;2023-07-24T07:32:36;3.20;;;1.95;;
80854;SDS011;70272;49.222;-122.892;2023-07-24T07:35:03;3.58;;;2.00;;
80854;SDS011;70272;49.222;-122.892;2023-07-24T07:37:29;4.00;;;2.20;;
80854;SDS011;70272;49.222;-122.892;2023-07-24T07:39:55;4.13;;;2.50;;
80854;SDS011;70272;49.222;-122.892;2023-07-24T07:42:22;3.47;;;2.20;;
80854;SDS011;70272;49.222;-122.892;2023-07-24T07:44:48;4.28;;;2.30;;
80854;SDS011;70272;49.222;-122.892;2023-07-24T07:47:14;3.95;;;2.30;;
80854;SDS011;70272;49.222;-122.892;2023-07-24T07:49:40;3.45;;;2.30;;
80854;SDS011;70272;49.222;-122.892;2023-07-24T07:52:07;4.60;;;2.30;;
80854;SDS011;70272;49.222;-122.892;2023-07-24T07:54:33;3.90;;;2.20;;
80854;SDS011;70272;49.222;-122.892;2023-07-24T07:56:59;5.22;;;2.67;;
80854;SDS011;70272;49.222;-122.892;2023-07-24T07:59:26;3.70;;;2.40;;
80854;SDS011;70272;49.222;-122.892;2023-07-24T08:01:52;3.58;;;2.53;;
80854;SDS011;70272;49.222;-122.892;2023-07-24T08:04:18;3.65;;;2.65;;
80854;SDS011;70272;49.222;-122.892;2023-07-24T08:06:44;3.78;;;2.55;;
80854;SDS011;70272;49.222;-122.892;2023-07-24T08:09:11;4.10;;;2.50;;
80854;SDS011;70272;49.222;-122.892;2023-07-24T08:11:37;4.00;;;2.60;;
80854;SDS011;70272;49.222;-122.892;2023-07-24T08:14:03;4.78;;;2.72;;
80854;SDS011;70272;49.222;-122.892;2023-07-24T08:16:31;5.68;;;2.90;;
80854;SDS011;70272;49.222;-122.892;2023-07-24T08:18:57;4.35;;;2.45;;
80854;SDS011;70272;49.222;-122.892;2023-07-24T08:21:23;4.20;;;2.42;;
80854;SDS011;70272;49.222;-122.892;2023-07-24T08:23:49;5.15;;;2.60;;
80854;SDS011;70272;49.222;-122.892;2023-07-24T08:26:16;4.35;;;2.60;;
80854;SDS011;70272;49.222;-122.892;2023-07-24T08:28:42;5.50;;;2.95;;
80854;SDS011;70272;49.222;-122.892;2023-07-24T08:31:08;3.60;;;2.50;;
80854;SDS011;70272;49.222;-122.892;2023-07-24T08:33:35;5.07;;;2.75;;
80854;SDS011;70272;49.222;-122.892;2023-07-24T08:36:05;4.75;;;2.88;;
80854;SDS011;70272;49.222;-122.892;2023-07-24T08:38:32;3.70;;;2.42;;
80854;SDS011;70272;49.222;-122.892;2023-07-24T08:43:35;4.28;;;2.63;;
80854;SDS011;70272;49.222;-122.892;2023-07-24T08:46:02;6.32;;;2.80;;
80854;SDS011;70272;49.222;-122.892;2023-07-24T08:48:30;4.30;;;2.65;;
80854;SDS011;70272;49.222;-122.892;2023-07-24T08:51:04;3.80;;;2.88;;
80854;SDS011;70272;49.222;-122.892;2023-07-24T08:53:34;4.50;;;2.97;;
80854;SDS011;70272;49.222;-122.892;2023-07-24T08:56:05;4.80;;;2.65;;
80854;SDS011;70272;49.222;-122.892;2023-07-24T08:58:32;4.35;;;2.70;;
80854;SDS011;70272;49.222;-122.892;2023-07-24T09:01:00;4.47;;;2.70;;
80854;SDS011;70272;49.222;-122.892;2023-07-24T09:03:27;5.10;;;2.95;;
80854;SDS011;70272;49.222;-122.892;2023-07-24T09:05:54;4.30;;;2.83;;
80854;SDS011;70272;49.222;-122.892;2023-07-24T09:08:30;6.45;;;2.90;;
80854;SDS011;70272;49.222;-122.892;2023-07-24T09:11:00;6.03;;;2.88;;
80854;SDS011;70272;49.222;-122.892;2023-07-24T09:13:27;4.85;;;2.45;;
80854;SDS011;70272;49.222;-122.892;2023-07-24T09:15:54;3.75;;;2.72;;
80854;SDS011;70272;49.222;-122.892;2023-07-24T09:18:20;4.68;;;2.58;;
80854;SDS011;70272;49.222;-122.892;2023-07-24T09:20:47;3.83;;;2.17;;
80854;SDS011;70272;49.222;-122.892;2023-07-24T09:23:15;3.42;;;2.40;;
80854;SDS011;70272;49.222;-122.892;2023-07-24T09:25:42;3.63;;;2.53;;
80854;SDS011;70272;49.222;-122.892;2023-07-24T09:28:10;4.40;;;2.72;;
80854;SDS011;70272;49.222;-122.892;2023-07-24T09:30:41;5.35;;;2.58;;
80854;SDS011;70272;49.222;-122.892;2023-07-24T09:33:09;3.38;;;2.47;;
80854;SDS011;70272;49.222;-122.892;2023-07-24T09:35:35;3.00;;;2.20;;
80854;SDS011;70272;49.222;-122.892;2023-07-24T09:38:02;3.92;;;2.50;;
80854;SDS011;70272;49.222;-122.892;2023-07-24T09:45:49;3.45;;;2.67;;
80854;SDS011;70272;49.222;-122.892;2023-07-24T09:48:17;4.07;;;2.80;;
80854;SDS011;70272;49.222;-122.892;2023-07-24T09:50:45;4.25;;;2.72;;
80854;SDS011;70272;49.222;-122.892;2023-07-24T09:53:22;4.28;;;2.58;;
80854;SDS011;70272;49.222;-122.892;2023-07-24T09:56:03;4.47;;;2.67;;
80854;SDS011;70272;49.222;-122.892;2023-07-24T09:58:38;4.03;;;2.50;;
80854;SDS011;70272;49.222;-122.892;2023-07-24T10:01:08;4.45;;;2.55;;
80854;SDS011;70272;49.222;-122.892;2023-07-24T10:03:37;4.65;;;2.95;;
80854;SDS011;70272;49.222;-122.892;2023-07-24T10:06:09;4.03;;;2.40;;
80854;SDS011;70272;49.222;-122.892;2023-07-24T10:08:40;5.50;;;2.53;;
80854;SDS011;70272;49.222;-122.892;2023-07-24T10:11:13;4.18;;;2.40;;
80854;SDS011;70272;49.222;-122.892;2023-07-24T10:13:40;5.00;;;2.60;;
80854;SDS011;70272;49.222;-122.892;2023-07-24T10:16:07;4.15;;;2.45;;
80854;SDS011;70272;49.222;-122.892;2023-07-24T10:18:34;5.15;;;2.50;;
80854;SDS011;70272;49.222;-122.892;2023-07-24T10:21:05;4.72;;;2.08;;
80854;SDS011;70272;49.222;-122.892;2023-07-24T10:23:35;5.68;;;2.75;;
80854;SDS011;70272;49.222;-122.892;2023-07-24T10:26:14;3.38;;;2.50;;
80854;SDS011;70272;49.222;-122.892;2023-07-24T10:28:41;4.85;;;2.30;;
80854;SDS011;70272;49.222;-122.892;2023-07-24T10:31:20;4.70;;;2.30;;
80854;SDS011;70272;49.222;-122.892;2023-07-24T10:33:48;4.95;;;2.10;;
80854;SDS011;70272;49.222;-122.892;2023-07-24T10:36:19;3.00;;;2.20;;
80854;SDS011;70272;49.222;-122.892;2023-07-24T10:38:51;5.57;;;2.40;;
80854;SDS011;70272;49.222;-122.892;2023-07-24T10:41:18;3.60;;;2.22;;
80854;SDS011;70272;49.222;-122.892;2023-07-24T10:43:46;5.60;;;2.40;;
80854;SDS011;70272;49.222;-122.892;2023-07-24T10:46:13;4.88;;;2.25;;
80854;SDS011;70272;49.222;-122.892;2023-07-24T10:48:42;3.72;;;2.33;;
80854;SDS011;70272;49.222;-122.892;2023-07-24T10:51:09;4.90;;;2.25;;
80854;SDS011;70272;49.222;-122.892;2023-07-24T10:53:37;3.50;;;1.95;;
80854;SDS011;70272;49.222;-122.892;2023-07-24T10:56:04;4.10;;;1.95;;
80854;SDS011;70272;49.222;-122.892;2023-07-24T10:58:31;4.07;;;3.03;;
80854;SDS011;70272;49.222;-122.892;2023-07-24T11:00:57;7.80;;;2.20;;
80854;SDS011;70272;49.222;-122.892;2023-07-24T11:03:24;4.60;;;2.33;;
80854;SDS011;70272;49.222;-122.892;2023-07-24T11:05:51;3.33;;;2.10;;
80854;SDS011;70272;49.222;-122.892;2023-07-24T11:08:19;4.57;;;2.22;;
80854;SDS011;70272;49.222;-122.892;2023-07-24T11:10:53;3.42;;;2.00;;
80854;SDS011;70272;49.222;-122.892;2023-07-24T11:13:23;4.82;;;2.30;;
80854;SDS011;70272;49.222;-122.892;2023-07-24T11:15:53;5.55;;;2.40;;
80854;SDS011;70272;49.222;-122.892;2023-07-24T11:18:21;5.00;;;2.20;;
80854;SDS011;70272;49.222;-122.892;2023-07-24T11:20:51;3.90;;;2.00;;
80854;SDS011;70272;49.222;-122.892;2023-07-24T11:23:18;4.38;;;2.28;;
80854;SDS011;70272;49.222;-122.892;2023-07-24T11:25:45;5.13;;;2.10;;
80854;SDS011;70272;49.222;-122.892;2023-07-24T11:28:13;5.47;;;2.38;;
80854;SDS011;70272;49.222;-122.892;2023-07-24T11:30:40;5.22;;;2.20;;
80854;SDS011;70272;49.222;-122.892;2023-07-24T11:33:07;5.28;;;2.05;;
80854;SDS011;70272;49.222;-122.892;2023-07-24T11:35:35;3.80;;;2.28;;
80854;SDS011;70272;49.222;-122.892;2023-07-24T11:38:04;5.25;;;2.65;;
80854;SDS011;70272;49.222;-122.892;2023-07-24T11:40:34;3.22;;;2.13;;
80854;SDS011;70272;49.222;-122.892;2023-07-24T11:43:02;4.25;;;2.30;;
80854;SDS011;70272;49.222;-122.892;2023-07-24T11:45:29;4.43;;;2.17;;
80854;SDS011;70272;49.222;-122.892;2023-07-24T11:47:56;4.63;;;2.20;;
80854;SDS011;70272;49.222;-122.892;2023-07-24T11:50:23;3.83;;;2.13;;
80854;SDS011;70272;49.222;-122.892;2023-07-24T11:52:50;4.55;;;2.10;;
80854;SDS011;70272;49.222;-122.892;2023-07-24T11:55:18;6.28;;;2.50;;
80854;SDS011;70272;49.222;-122.892;2023-07-24T11:57:58;4.65;;;2.38;;
80854;SDS011;70272;49.222;-122.892;2023-07-24T12:00:25;4.30;;;2.75;;
80854;SDS011;70272;49.222;-122.892;2023-07-24T12:02:53;5.90;;;2.08;;
80854;SDS011;70272;49.222;-122.892;2023-07-24T12:07:53;3.97;;;1.85;;
80854;SDS011;70272;49.222;-122.892;2023-07-24T12:10:27;4.78;;;2.30;;
80854;SDS011;70272;49.222;-122.892;2023-07-24T12:12:54;5.00;;;2.17;;
80854;SDS011;70272;49.222;-122.892;2023-07-24T12:15:21;4.05;;;1.92;;
80854;SDS011;70272;49.222;-122.892;2023-07-24T12:17:47;5.15;;;2.30;;
80854;SDS011;70272;49.222;-122.892;2023-07-24T12:20:14;3.88;;;2.10;;
80854;SDS011;70272;49.222;-122.892;2023-07-24T12:22:40;4.22;;;2.33;;
80854;SDS011;70272;49.222;-122.892;2023-07-24T12:25:06;5.70;;;2.40;;
80854;SDS011;70272;49.222;-122.892;2023-07-24T12:27:33;6.47;;;2.30;;
80854;SDS011;70272;49.222;-122.892;2023-07-24T12:29:59;5.22;;;2.70;;
80854;SDS011;70272;49.222;-122.892;2023-07-24T12:32:26;3.42;;;2.33;;
80854;SDS011;70272;49.222;-122.892;2023-07-24T12:34:52;3.38;;;2.05;;
80854;SDS011;70272;49.222;-122.892;2023-07-24T12:37:19;5.40;;;2.72;;
80854;SDS011;70272;49.222;-122.892;2023-07-24T12:39:46;5.20;;;2.45;;
80854;SDS011;70272;49.222;-122.892;2023-07-24T12:42:13;5.05;;;2.20;;
80854;SDS011;70272;49.222;-122.892;2023-07-24T12:44:40;5.57;;;2.70;;
80854;SDS011;70272;49.222;-122.892;2023-07-24T12:47:07;3.65;;;2.15;;
80854;SDS011;70272;49.222;-122.892;2023-07-24T12:49:33;3.83;;;2.40;;
80854;SDS011;70272;49.222;-122.892;2023-07-24T12:52:00;8.10;;;2.50;;
80854;SDS011;70272;49.222;-122.892;2023-07-24T12:54:26;5.18;;;2.70;;
80854;SDS011;70272;49.222;-122.892;2023-07-24T12:56:53;6.75;;;3.20;;
80854;SDS011;70272;49.222;-122.892;2023-07-24T12:59:19;4.97;;;2.72;;
80854;SDS011;70272;49.222;-122.892;2023-07-24T13:01:45;4.28;;;2.65;;
80854;SDS011;70272;49.222;-122.892;2023-07-24T13:04:12;5.15;;;2.50;;
80854;SDS011;70272;49.222;-122.892;2023-07-24T13:06:38;9.02;;;3.28;;
80854;SDS011;70272;49.222;-122.892;2023-07-24T13:09:05;6.10;;;2.30;;
80854;SDS011;70272;49.222;-122.892;2023-07-24T13:11:31;4.28;;;2.60;;
80854;SDS011;70272;49.222;-122.892;2023-07-24T13:13:57;6.28;;;2.58;;
80854;SDS011;70272;49.222;-122.892;2023-07-24T13:16:23;5.40;;;2.60;;
80854;SDS011;70272;49.222;-122.892;2023-07-24T13:18:50;5.57;;;2.60;;
80854;SDS011;70272;49.222;-122.892;2023-07-24T13:21:16;4.97;;;2.50;;
80854;SDS011;70272;49.222;-122.892;2023-07-24T13:23:42;5.45;;;2.50;;
80854;SDS011;70272;49.222;-122.892;2023-07-24T13:26:09;5.95;;;2.70;;
80854;SDS011;70272;49.222;-122.892;2023-07-24T13:28:36;7.95;;;2.92;;
80854;SDS011;70272;49.222;-122.892;2023-07-24T13:33:41;7.90;;;5.63;;
80854;SDS011;70272;49.222;-122.892;2023-07-24T13:36:08;4.95;;;2.50;;
80854;SDS011;70272;49.222;-122.892;2023-07-24T13:38:34;6.57;;;2.70;;
80854;SDS011;70272;49.222;-122.892;2023-07-24T13:41:01;5.90;;;2.80;;
80854;SDS011;70272;49.222;-122.892;2023-07-24T13:43:29;5.80;;;3.10;;
80854;SDS011;70272;49.222;-122.892;2023-07-24T13:45:55;6.55;;;2.90;;
80854;SDS011;70272;49.222;-122.892;2023-07-24T13:48:22;5.82;;;2.67;;
80854;SDS011;70272;49.222;-122.892;2023-07-24T13:50:49;8.23;;;2.42;;
80854;SDS011;70272;49.222;-122.892;2023-07-24T13:53:15;5.78;;;3.08;;
80854;SDS011;70272;49.222;-122.892;2023-07-24T13:55:42;7.95;;;2.92;;
80854;SDS011;70272;49.222;-122.892;2023-07-24T13:58:09;6.88;;;3.30;;
80854;SDS011;70272;49.222;-122.892;2023-07-24T14:00:35;9.35;;;3.53;;
80854;SDS011;70272;49.222;-122.892;2023-07-24T14:03:01;21.08;;;6.57;;
80854;SDS011;70272;49.222;-122.892;2023-07-24T14:05:27;7.10;;;3.90;;
80854;SDS011;70272;49.222;-122.892;2023-07-24T14:07:54;10.05;;;3.92;;
80854;SDS011;70272;49.222;-122.892;2023-07-24T14:10:20;12.73;;;5.65;;
80854;SDS011;70272;49.222;-122.892;2023-07-24T14:12:46;8.95;;;5.15;;
80854;SDS011;70272;49.222;-122.892;2023-07-24T14:15:12;9.20;;;4.07;;
80854;SDS011;70272;49.222;-122.892;2023-07-24T14:17:39;8.23;;;4.22;;
80854;SDS011;70272;49.222;-122.892;2023-07-24T14:20:06;10.20;;;5.78;;
80854;SDS011;70272;49.222;-122.892;2023-07-24T14:22:33;9.52;;;3.90;;
80854;SDS011;70272;49.222;-122.892;2023-07-24T14:24:59;11.63;;;4.70;;
80854;SDS011;70272;49.222;-122.892;2023-07-24T14:27:25;10.77;;;4.60;;